sensor_id;sensor_type;location;lat;lon;timestamp;pressure;altitude;pressure_sealevel;temperature;humidity
8477;BME280;4275;42.854;23.222;2023-06-26T00:00:48;107971.50;;;-141.02;100.00
8477;BME280;4275;42.854;23.222;2023-06-26T00:03:15;107971.50;;;-141.02;100.00
8477;BME280;4275;42.854;23.222;2023-06-26T00:05:43;107971.50;;;-141.02;100.00
8477;BME280;4275;42.854;23.222;2023-06-26T00:08:10;107971.50;;;-141.02;100.00
8477;BME280;4275;42.854;23.222;2023-06-26T00:10:37;107971.50;;;-141.02;100.00
8477;BME280;4275;42.854;23.222;2023-06-26T00:13:04;107971.50;;;-141.02;100.00
8477;BME280;4275;42.854;23.222;2023-06-26T00:15:31;107971.50;;;-141.02;100.00
8477;BME280;4275;42.854;23.222;2023-06-26T00:17:58;107971.50;;;-141.02;100.00
8477;BME280;4275;42.854;23.222;2023-06-26T00:20:25;107971.50;;;-141.02;100.00
8477;BME280;4275;42.854;23.222;2023-06-26T00:22:54;107971.50;;;-141.02;100.00
8477;BME280;4275;42.854;23.222;2023-06-26T00:25:24;107971.50;;;-141.02;100.00
8477;BME280;4275;42.854;23.222;2023-06-26T00:27:51;107971.50;;;-141.02;100.00
8477;BME280;4275;42.854;23.222;2023-06-26T00:30:18;107971.50;;;-141.02;100.00
8477;BME280;4275;42.854;23.222;2023-06-26T00:32:45;107971.50;;;-141.02;100.00
8477;BME280;4275;42.854;23.222;2023-06-26T00:35:12;107971.50;;;-141.02;100.00
8477;BME280;4275;42.854;23.222;2023-06-26T00:37:39;107971.50;;;-141.02;100.00
8477;BME280;4275;42.854;23.222;2023-06-26T00:40:08;107971.50;;;-141.02;100.00
8477;BME280;4275;42.854;23.222;2023-06-26T00:42:36;107971.50;;;-141.02;100.00
8477;BME280;4275;42.854;23.222;2023-06-26T00:45:03;107971.50;;;-141.02;100.00
8477;BME280;4275;42.854;23.222;2023-06-26T00:47:30;107971.50;;;-141.02;100.00
8477;BME280;4275;42.854;23.222;2023-06-26T00:49:57;107971.50;;;-141.02;100.00
8477;BME280;4275;42.854;23.222;2023-06-26T00:52:25;107971.50;;;-141.02;100.00
8477;BME280;4275;42.854;23.222;2023-06-26T00:54:52;107971.50;;;-141.02;100.00
8477;BME280;4275;42.854;23.222;2023-06-26T00:57:20;107971.50;;;-141.02;100.00
8477;BME280;4275;42.854;23.222;2023-06-26T00:59:48;107971.50;;;-141.02;100.00
8477;BME280;4275;42.854;23.222;2023-06-26T01:02:15;107971.50;;;-141.02;100.00
8477;BME280;4275;42.854;23.222;2023-06-26T01:04:46;107971.50;;;-141.02;100.00
8477;BME280;4275;42.854;23.222;2023-06-26T01:07:14;107971.50;;;-141.02;100.00
8477;BME280;4275;42.854;23.222;2023-06-26T01:09:43;107971.50;;;-141.02;100.00
8477;BME280;4275;42.854;23.222;2023-06-26T01:12:10;107971.50;;;-141.02;100.00
8477;BME280;4275;42.854;23.222;2023-06-26T01:14:39;107971.50;;;-141.02;100.00
8477;BME280;4275;42.854;23.222;2023-06-26T01:17:06;107971.50;;;-141.02;100.00
8477;BME280;4275;42.854;23.222;2023-06-26T01:19:37;107971.50;;;-141.02;100.00
8477;BME280;4275;42.854;23.222;2023-06-26T01:22:17;107971.50;;;-141.02;100.00
8477;BME280;4275;42.854;23.222;2023-06-26T01:24:54;107971.50;;;-141.02;100.00
8477;BME280;4275;42.854;23.222;2023-06-26T01:27:25;107971.50;;;-141.02;100.00
8477;BME280;4275;42.854;23.222;2023-06-26T01:29:53;107971.50;;;-141.02;100.00
8477;BME280;4275;42.854;23.222;2023-06-26T01:32:22;107971.50;;;-141.02;100.00
8477;BME280;4275;42.854;23.222;2023-06-26T01:34:49;107971.50;;;-141.02;100.00
8477;BME280;4275;42.854;23.222;2023-06-26T01:37:17;107971.50;;;-141.02;100.00
8477;BME280;4275;42.854;23.222;2023-06-26T01:39:44;107971.50;;;-141.02;100.00
8477;BME280;4275;42.854;23.222;2023-06-26T01:42:11;107971.50;;;-141.02;100.00
8477;BME280;4275;42.854;23.222;2023-06-26T01:44:44;107971.50;;;-141.02;100.00
8477;BME280;4275;42.854;23.222;2023-06-26T01:47:12;107971.50;;;-141.02;100.00
8477;BME280;4275;42.854;23.222;2023-06-26T01:49:49;107971.50;;;-141.02;100.00
8477;BME280;4275;42.854;23.222;2023-06-26T01:52:20;107971.50;;;-141.02;100.00
8477;BME280;4275;42.854;23.222;2023-06-26T01:54:58;107971.50;;;-141.02;100.00
8477;BME280;4275;42.854;23.222;2023-06-26T01:57:27;107971.50;;;-141.02;100.00
8477;BME280;4275;42.854;23.222;2023-06-26T01:59:56;107971.50;;;-141.02;100.00
8477;BME280;4275;42.854;23.222;2023-06-26T02:02:25;107971.50;;;-141.02;100.00
8477;BME280;4275;42.854;23.222;2023-06-26T02:04:52;107971.50;;;-141.02;100.00
8477;BME280;4275;42.854;23.222;2023-06-26T02:07:19;107971.50;;;-141.02;100.00
8477;BME280;4275;42.854;23.222;2023-06-26T02:09:46;107971.50;;;-141.02;100.00
8477;BME280;4275;42.854;23.222;2023-06-26T02:12:13;107971.50;;;-141.02;100.00
8477;BME280;4275;42.854;23.222;2023-06-26T02:14:40;107971.50;;;-141.02;100.00
8477;BME280;4275;42.854;23.222;2023-06-26T02:17:09;107971.50;;;-141.02;100.00
8477;BME280;4275;42.854;23.222;2023-06-26T02:19:36;107971.50;;;-141.02;100.00
8477;BME280;4275;42.854;23.222;2023-06-26T02:22:10;107971.50;;;-141.02;100.00
8477;BME280;4275;42.854;23.222;2023-06-26T02:24:37;107971.50;;;-141.02;100.00
8477;BME280;4275;42.854;23.222;2023-06-26T02:27:04;107971.50;;;-141.02;100.00
8477;BME280;4275;42.854;23.222;2023-06-26T02:29:31;107971.50;;;-141.02;100.00
8477;BME280;4275;42.854;23.222;2023-06-26T02:31:58;107971.50;;;-141.02;100.00
8477;BME280;4275;42.854;23.222;2023-06-26T02:34:27;107971.50;;;-141.02;100.00
8477;BME280;4275;42.854;23.222;2023-06-26T02:36:54;107971.50;;;-141.02;100.00
8477;BME280;4275;42.854;23.222;2023-06-26T02:39:22;107971.50;;;-141.02;100.00
8477;BME280;4275;42.854;23.222;2023-06-26T02:41:49;107971.50;;;-141.02;100.00
8477;BME280;4275;42.854;23.222;2023-06-26T02:44:16;107971.50;;;-141.02;100.00
8477;BME280;4275;42.854;23.222;2023-06-26T02:46:43;107971.50;;;-141.02;100.00
8477;BME280;4275;42.854;23.222;2023-06-26T02:49:10;107971.50;;;-141.02;100.00
8477;BME280;4275;42.854;23.222;2023-06-26T02:51:38;107971.50;;;-141.02;100.00
8477;BME280;4275;42.854;23.222;2023-06-26T02:54:05;107971.50;;;-141.02;100.00
8477;BME280;4275;42.854;23.222;2023-06-26T02:56:32;107971.50;;;-141.02;100.00
8477;BME280;4275;42.854;23.222;2023-06-26T02:58:59;107971.50;;;-141.02;100.00
8477;BME280;4275;42.854;23.222;2023-06-26T03:01:26;107971.50;;;-141.02;100.00
8477;BME280;4275;42.854;23.222;2023-06-26T03:03:53;107971.50;;;-141.02;100.00
8477;BME280;4275;42.854;23.222;2023-06-26T03:06:20;107971.50;;;-141.02;100.00
8477;BME280;4275;42.854;23.222;2023-06-26T03:08:48;107971.50;;;-141.02;100.00
8477;BME280;4275;42.854;23.222;2023-06-26T03:11:15;107971.50;;;-141.02;100.00
8477;BME280;4275;42.854;23.222;2023-06-26T03:13:42;107971.50;;;-141.02;100.00
8477;BME280;4275;42.854;23.222;2023-06-26T03:16:09;107971.50;;;-141.02;100.00
8477;BME280;4275;42.854;23.222;2023-06-26T03:18:36;107971.50;;;-141.02;100.00
8477;BME280;4275;42.854;23.222;2023-06-26T03:21:03;107971.50;;;-141.02;100.00
8477;BME280;4275;42.854;23.222;2023-06-26T03:23:30;107971.50;;;-141.02;100.00
8477;BME280;4275;42.854;23.222;2023-06-26T03:25:59;107971.50;;;-141.02;100.00
8477;BME280;4275;42.854;23.222;2023-06-26T03:28:26;107971.50;;;-141.02;100.00
8477;BME280;4275;42.854;23.222;2023-06-26T03:40:56;107971.50;;;-141.02;100.00
8477;BME280;4275;42.854;23.222;2023-06-26T03:53:00;107971.50;;;-141.02;100.00
8477;BME280;4275;42.854;23.222;2023-06-26T03:55:27;107971.50;;;-141.02;100.00
8477;BME280;4275;42.854;23.222;2023-06-26T03:58:11;107971.50;;;-141.02;100.00
8477;BME280;4275;42.854;23.222;2023-06-26T04:00:41;107971.50;;;-141.02;100.00
8477;BME280;4275;42.854;23.222;2023-06-26T04:03:08;107971.50;;;-141.02;100.00
8477;BME280;4275;42.854;23.222;2023-06-26T04:09:28;107971.50;;;-141.02;100.00
8477;BME280;4275;42.854;23.222;2023-06-26T04:21:36;107969.53;;;-141.02;100.00
8477;BME280;4275;42.854;23.222;2023-06-26T04:24:38;107719.09;;;-141.02;100.00
8477;BME280;4275;42.854;23.222;2023-06-26T04:27:05;107468.69;;;-141.02;100.00
8477;BME280;4275;42.854;23.222;2023-06-26T04:29:42;107468.69;;;-141.02;100.00
8477;BME280;4275;42.854;23.222;2023-06-26T04:38:40;107969.53;;;-141.02;100.00
8477;BME280;4275;42.854;23.222;2023-06-26T04:41:25;107969.53;;;-141.02;100.00
8477;BME280;4275;42.854;23.222;2023-06-26T04:44:04;107468.69;;;-141.02;100.00
8477;BME280;4275;42.854;23.222;2023-06-26T04:46:31;107468.69;;;-141.02;100.00
8477;BME280;4275;42.854;23.222;2023-06-26T05:00:15;107969.53;;;-141.02;100.00
8477;BME280;4275;42.854;23.222;2023-06-26T05:02:42;107719.09;;;-141.02;100.00
8477;BME280;4275;42.854;23.222;2023-06-26T05:05:09;107719.09;;;-141.02;100.00
8477;BME280;4275;42.854;23.222;2023-06-26T05:07:37;107719.09;;;-141.02;100.00
8477;BME280;4275;42.854;23.222;2023-06-26T05:10:05;107719.09;;;-141.02;100.00
8477;BME280;4275;42.854;23.222;2023-06-26T05:12:33;107719.09;;;-141.02;100.00
8477;BME280;4275;42.854;23.222;2023-06-26T05:15:00;107969.53;;;-141.02;100.00
8477;BME280;4275;42.854;23.222;2023-06-26T05:17:28;107971.50;;;-141.02;100.00
8477;BME280;4275;42.854;23.222;2023-06-26T05:19:55;107969.53;;;-141.02;100.00
8477;BME280;4275;42.854;23.222;2023-06-26T05:22:23;107468.69;;;-141.02;100.00
8477;BME280;4275;42.854;23.222;2023-06-26T05:24:51;107969.53;;;-141.02;100.00
8477;BME280;4275;42.854;23.222;2023-06-26T05:27:21;107468.69;;;-141.02;100.00
8477;BME280;4275;42.854;23.222;2023-06-26T05:29:49;106967.91;;;-141.02;100.00
8477;BME280;4275;42.854;23.222;2023-06-26T05:32:17;106967.91;;;-141.02;100.00
8477;BME280;4275;42.854;23.222;2023-06-26T05:34:47;106717.56;;;-141.02;100.00
8477;BME280;4275;42.854;23.222;2023-06-26T05:37:18;106717.56;;;-141.02;100.00
8477;BME280;4275;42.854;23.222;2023-06-26T05:39:47;106467.22;;;-141.02;100.00
8477;BME280;4275;42.854;23.222;2023-06-26T05:42:15;106717.56;;;-141.02;100.00
8477;BME280;4275;42.854;23.222;2023-06-26T05:44:42;106717.56;;;-141.02;100.00
8477;BME280;4275;42.854;23.222;2023-06-26T05:47:09;106467.22;;;-141.02;100.00
8477;BME280;4275;42.854;23.222;2023-06-26T05:49:36;106467.22;;;-141.02;100.00
8477;BME280;4275;42.854;23.222;2023-06-26T05:52:06;105966.59;;;-141.02;100.00
8477;BME280;4275;42.854;23.222;2023-06-26T05:54:34;106216.91;;;-141.02;100.00
8477;BME280;4275;42.854;23.222;2023-06-26T05:57:02;106717.56;;;-141.02;100.00
8477;BME280;4275;42.854;23.222;2023-06-26T05:59:31;106717.56;;;-141.02;100.00
8477;BME280;4275;42.854;23.222;2023-06-26T06:01:58;106717.56;;;-141.02;100.00
8477;BME280;4275;42.854;23.222;2023-06-26T06:04:25;106467.22;;;-141.02;100.00
8477;BME280;4275;42.854;23.222;2023-06-26T06:06:52;106717.56;;;-141.02;100.00
8477;BME280;4275;42.854;23.222;2023-06-26T06:09:20;106467.22;;;-141.02;100.00
8477;BME280;4275;42.854;23.222;2023-06-26T06:11:47;106467.22;;;-141.02;100.00
8477;BME280;4275;42.854;23.222;2023-06-26T06:14:14;105966.59;;;-141.02;100.00
8477;BME280;4275;42.854;23.222;2023-06-26T06:16:41;105966.59;;;-141.02;100.00
8477;BME280;4275;42.854;23.222;2023-06-26T06:19:08;105466.03;;;-141.02;100.00
8477;BME280;4275;42.854;23.222;2023-06-26T06:21:38;105716.31;;;-141.02;100.00
8477;BME280;4275;42.854;23.222;2023-06-26T06:24:05;105966.59;;;-141.02;100.00
8477;BME280;4275;42.854;23.222;2023-06-26T06:26:34;105966.59;;;-141.02;100.00
8477;BME280;4275;42.854;23.222;2023-06-26T06:29:01;106216.91;;;-141.02;100.00
8477;BME280;4275;42.854;23.222;2023-06-26T06:31:28;106967.91;;;-141.02;100.00
8477;BME280;4275;42.854;23.222;2023-06-26T06:33:55;106967.91;;;-141.02;100.00
8477;BME280;4275;42.854;23.222;2023-06-26T06:36:22;106967.91;;;-141.02;100.00
8477;BME280;4275;42.854;23.222;2023-06-26T06:38:49;106967.91;;;-141.02;100.00
8477;BME280;4275;42.854;23.222;2023-06-26T06:41:17;106216.91;;;-141.02;100.00
8477;BME280;4275;42.854;23.222;2023-06-26T06:43:45;105966.59;;;-141.02;100.00
8477;BME280;4275;42.854;23.222;2023-06-26T06:46:12;105466.03;;;-141.02;100.00
8477;BME280;4275;42.854;23.222;2023-06-26T06:48:39;105716.31;;;-141.02;100.00
8477;BME280;4275;42.854;23.222;2023-06-26T06:51:06;105215.78;;;-141.02;100.00
8477;BME280;4275;42.854;23.222;2023-06-26T06:53:33;105215.78;;;-141.02;100.00
8477;BME280;4275;42.854;23.222;2023-06-26T06:56:00;104715.34;;;-141.02;100.00
8477;BME280;4275;42.854;23.222;2023-06-26T06:58:27;103214.44;;;-141.02;100.00
8477;BME280;4275;42.854;23.222;2023-06-26T07:00:56;102464.22;;;-141.02;100.00
8477;BME280;4275;42.854;23.222;2023-06-26T07:03:23;103964.81;;;-141.02;100.00
8477;BME280;4275;42.854;23.222;2023-06-26T07:05:50;103964.81;;;-141.02;100.00
8477;BME280;4275;42.854;23.222;2023-06-26T07:08:17;101964.16;;;-141.02;100.00
8477;BME280;4275;42.854;23.222;2023-06-26T07:10:44;101214.22;;;-141.02;98.90
8477;BME280;4275;42.854;23.222;2023-06-26T07:13:11;101464.19;;;-141.02;100.00
8477;BME280;4275;42.854;23.222;2023-06-26T07:15:38;101464.19;;;-141.02;100.00
8477;BME280;4275;42.854;23.222;2023-06-26T07:18:07;101464.19;;;-141.02;100.00
8477;BME280;4275;42.854;23.222;2023-06-26T07:20:33;101214.22;;;-141.02;100.00
8477;BME280;4275;42.854;23.222;2023-06-26T07:23:00;102214.16;;;-141.02;100.00
8477;BME280;4275;42.854;23.222;2023-06-26T07:25:28;101714.16;;;-141.02;100.00
8477;BME280;4275;42.854;23.222;2023-06-26T07:27:54;102214.16;;;-141.02;100.00
8477;BME280;4275;42.854;23.222;2023-06-26T07:30:21;101714.16;;;-141.02;98.20
8477;BME280;4275;42.854;23.222;2023-06-26T07:32:49;100464.44;;;-141.02;99.73
8477;BME280;4275;42.854;23.222;2023-06-26T07:35:18;99714.81;;;-141.02;99.40
8477;BME280;4275;42.854;23.222;2023-06-26T07:37:45;99464.97;;;-141.02;99.70
8477;BME280;4275;42.854;23.222;2023-06-26T07:40:12;99964.66;;;-141.02;100.00
8477;BME280;4275;42.854;23.222;2023-06-26T07:42:39;99714.81;;;-141.02;100.00
8477;BME280;4275;42.854;23.222;2023-06-26T07:45:07;99215.16;;;-141.02;100.00
8477;BME280;4275;42.854;23.222;2023-06-26T07:47:36;99464.97;;;-141.02;100.00
8477;BME280;4275;42.854;23.222;2023-06-26T07:50:04;99964.66;;;-141.02;100.00
8477;BME280;4275;42.854;23.222;2023-06-26T07:52:32;99215.16;;;-141.02;100.00
8477;BME280;4275;42.854;23.222;2023-06-26T07:55:03;99464.97;;;-141.02;100.00
8477;BME280;4275;42.854;23.222;2023-06-26T07:57:30;99714.81;;;-141.02;100.00
8477;BME280;4275;42.854;23.222;2023-06-26T07:59:58;99964.66;;;-141.02;100.00
8477;BME280;4275;42.854;23.222;2023-06-26T08:02:25;100464.44;;;-141.02;99.57
8477;BME280;4275;42.854;23.222;2023-06-26T08:04:51;101214.22;;;-141.02;99.84
8477;BME280;4275;42.854;23.222;2023-06-26T08:07:18;99964.66;;;-141.02;93.22
8477;BME280;4275;42.854;23.222;2023-06-26T08:09:47;98965.34;;;-141.02;93.87
8477;BME280;4275;42.854;23.222;2023-06-26T08:12:14;98216.03;;;-141.02;92.56
8477;BME280;4275;42.854;23.222;2023-06-26T08:14:41;97716.59;;;-141.02;95.18
8477;BME280;4275;42.854;23.222;2023-06-26T08:17:08;97966.31;;;-141.02;96.61
8477;BME280;4275;42.854;23.222;2023-06-26T08:19:35;98965.34;;;-141.02;99.93
8477;BME280;4275;42.854;23.222;2023-06-26T08:22:02;97716.59;;;-141.02;94.71
8477;BME280;4275;42.854;23.222;2023-06-26T08:24:32;98216.03;;;-141.02;93.59
8477;BME280;4275;42.854;23.222;2023-06-26T08:27:01;98965.34;;;-141.02;93.20
8477;BME280;4275;42.854;23.222;2023-06-26T08:29:29;97716.59;;;-141.02;92.17
8477;BME280;4275;42.854;23.222;2023-06-26T08:31:56;98216.03;;;-141.02;93.14
8477;BME280;4275;42.854;23.222;2023-06-26T08:34:24;97966.31;;;-141.02;94.13
8477;BME280;4275;42.854;23.222;2023-06-26T08:36:51;99464.97;;;-141.02;96.69
8477;BME280;4275;42.854;23.222;2023-06-26T08:39:18;98965.34;;;-141.02;95.45
8477;BME280;4275;42.854;23.222;2023-06-26T08:41:45;98965.34;;;-141.02;86.12
8477;BME280;4275;42.854;23.222;2023-06-26T08:44:14;99215.16;;;-141.02;84.99
8477;BME280;4275;42.854;23.222;2023-06-26T08:46:41;98465.78;;;-141.02;85.01
8477;BME280;4275;42.854;23.222;2023-06-26T08:49:14;97466.91;;;-141.02;86.66
8477;BME280;4275;42.854;23.222;2023-06-26T08:51:50;96717.94;;;-141.02;86.23
8477;BME280;4275;42.854;23.222;2023-06-26T08:54:23;96468.31;;;-141.02;84.74
8477;BME280;4275;42.854;23.222;2023-06-26T08:56:55;97966.31;;;-141.02;87.97
8477;BME280;4275;42.854;23.222;2023-06-26T08:59:24;96717.94;;;-141.02;86.12
8477;BME280;4275;42.854;23.222;2023-06-26T09:01:51;96967.56;;;-141.02;88.17
8477;BME280;4275;42.854;23.222;2023-06-26T09:04:19;96717.94;;;-141.02;86.31
8477;BME280;4275;42.854;23.222;2023-06-26T09:06:46;97966.31;;;-141.02;83.70
8477;BME280;4275;42.854;23.222;2023-06-26T09:09:13;97217.22;;;-141.02;79.45
8477;BME280;4275;42.854;23.222;2023-06-26T09:11:40;96717.94;;;-141.02;79.84
8477;BME280;4275;42.854;23.222;2023-06-26T09:14:07;95969.13;;;-141.02;82.29
8477;BME280;4275;42.854;23.222;2023-06-26T09:16:40;95719.53;;;-141.02;86.29
8477;BME280;4275;42.854;23.222;2023-06-26T09:19:11;94721.44;;;-141.02;87.10
8477;BME280;4275;42.854;23.222;2023-06-26T09:21:39;94471.97;;;-141.02;86.62
8477;BME280;4275;42.854;23.222;2023-06-26T09:24:07;94471.97;;;-141.02;87.50
8477;BME280;4275;42.854;23.222;2023-06-26T09:26:36;95220.47;;;-141.02;89.27
8477;BME280;4275;42.854;23.222;2023-06-26T09:29:04;95220.47;;;-141.02;87.29
8477;BME280;4275;42.854;23.222;2023-06-26T09:31:32;96717.94;;;-141.02;87.92
8477;BME280;4275;42.854;23.222;2023-06-26T09:34:00;96717.94;;;-141.02;85.36
8477;BME280;4275;42.854;23.222;2023-06-26T09:36:29;95719.53;;;-141.02;81.43
8477;BME280;4275;42.854;23.222;2023-06-26T09:38:59;97716.59;;;-141.02;83.61
8477;BME280;4275;42.854;23.222;2023-06-26T09:41:26;96967.56;;;-141.02;81.55
8477;BME280;4275;42.854;23.222;2023-06-26T09:43:54;96967.56;;;-141.02;79.79
8477;BME280;4275;42.854;23.222;2023-06-26T09:46:25;95470.00;;;-141.02;76.07
8477;BME280;4275;42.854;23.222;2023-06-26T09:49:00;94970.94;;;-141.02;82.99
8477;BME280;4275;42.854;23.222;2023-06-26T09:51:29;93973.06;;;-141.02;78.42
8477;BME280;4275;42.854;23.222;2023-06-26T09:53:56;93973.06;;;-141.02;83.22
8477;BME280;4275;42.854;23.222;2023-06-26T09:56:23;95470.00;;;-141.02;85.96
8477;BME280;4275;42.854;23.222;2023-06-26T09:58:51;96218.69;;;-141.02;88.86
8477;BME280;4275;42.854;23.222;2023-06-26T10:01:18;94471.97;;;-141.02;84.97
8477;BME280;4275;42.854;23.222;2023-06-26T10:03:45;94222.50;;;-141.02;86.07
8477;BME280;4275;42.854;23.222;2023-06-26T10:06:15;93973.06;;;-141.02;87.65
8477;BME280;4275;42.854;23.222;2023-06-26T10:08:45;93723.63;;;-141.02;89.85
8477;BME280;4275;42.854;23.222;2023-06-26T10:11:16;93973.06;;;-141.02;92.21
8477;BME280;4275;42.854;23.222;2023-06-26T10:13:47;93723.63;;;-141.02;92.95
8477;BME280;4275;42.854;23.222;2023-06-26T10:16:20;94970.94;;;-141.02;95.61
8477;BME280;4275;42.854;23.222;2023-06-26T10:18:50;94970.94;;;-141.02;94.19
8477;BME280;4275;42.854;23.222;2023-06-26T10:21:22;95220.47;;;-141.02;95.45
8477;BME280;4275;42.854;23.222;2023-06-26T10:23:51;94970.94;;;-141.02;94.06
8477;BME280;4275;42.854;23.222;2023-06-26T10:26:21;94471.97;;;-141.02;93.50
8477;BME280;4275;42.854;23.222;2023-06-26T10:28:50;94721.44;;;-141.02;93.03
8477;BME280;4275;42.854;23.222;2023-06-26T10:31:20;95470.00;;;-141.02;95.10
8477;BME280;4275;42.854;23.222;2023-06-26T10:33:48;94222.50;;;-141.02;88.89
8477;BME280;4275;42.854;23.222;2023-06-26T10:36:16;94471.97;;;-141.02;90.48
8477;BME280;4275;42.854;23.222;2023-06-26T10:38:52;93973.06;;;-141.02;89.65
8477;BME280;4275;42.854;23.222;2023-06-26T10:41:21;93474.22;;;-141.02;88.32
8477;BME280;4275;42.854;23.222;2023-06-26T10:43:50;94222.50;;;-141.02;89.10
8477;BME280;4275;42.854;23.222;2023-06-26T10:46:18;95470.00;;;-141.02;86.73
8477;BME280;4275;42.854;23.222;2023-06-26T10:48:59;96218.69;;;-141.02;83.96
8477;BME280;4275;42.854;23.222;2023-06-26T10:51:26;95470.00;;;-141.02;82.28
8477;BME280;4275;42.854;23.222;2023-06-26T10:53:56;95220.47;;;-141.02;81.33
8477;BME280;4275;42.854;23.222;2023-06-26T10:56:41;95969.13;;;-141.02;81.27
8477;BME280;4275;42.854;23.222;2023-06-26T10:59:14;94222.50;;;-141.02;80.12
8477;BME280;4275;42.854;23.222;2023-06-26T11:01:42;94222.50;;;-141.02;80.82
8477;BME280;4275;42.854;23.222;2023-06-26T11:04:09;95719.53;;;-141.02;81.50
8477;BME280;4275;42.854;23.222;2023-06-26T11:06:38;94721.44;;;-141.02;79.59
8477;BME280;4275;42.854;23.222;2023-06-26T11:09:11;94471.97;;;-141.02;78.60
8477;BME280;4275;42.854;23.222;2023-06-26T11:12:00;93474.22;;;-141.02;76.33
8477;BME280;4275;42.854;23.222;2023-06-26T11:14:32;93973.06;;;-141.02;80.95
8477;BME280;4275;42.854;23.222;2023-06-26T11:17:02;93224.84;;;-141.02;78.87
8477;BME280;4275;42.854;23.222;2023-06-26T11:19:29;93224.84;;;-141.02;79.66
8477;BME280;4275;42.854;23.222;2023-06-26T11:22:02;92476.78;;;-141.02;80.46
8477;BME280;4275;42.854;23.222;2023-06-26T11:24:32;91978.16;;;-141.02;79.43
8477;BME280;4275;42.854;23.222;2023-06-26T11:27:00;91978.16;;;-141.02;80.92
8477;BME280;4275;42.854;23.222;2023-06-26T11:41:23;92975.47;;;-141.02;100.00
8477;BME280;4275;42.854;23.222;2023-06-26T11:43:51;94970.94;;;-141.02;100.00
8477;BME280;4275;42.854;23.222;2023-06-26T11:46:21;95470.00;;;-141.02;100.00
8477;BME280;4275;42.854;23.222;2023-06-26T11:48:49;96468.31;;;-141.02;100.00
8477;BME280;4275;42.854;23.222;2023-06-26T11:51:16;98965.34;;;-141.02;100.00
8477;BME280;4275;42.854;23.222;2023-06-26T11:53:44;100214.53;;;-141.02;100.00
8477;BME280;4275;42.854;23.222;2023-06-26T11:56:12;100214.53;;;-141.02;100.00
8477;BME280;4275;42.854;23.222;2023-06-26T11:58:59;99215.16;;;-141.02;100.00
8477;BME280;4275;42.854;23.222;2023-06-26T12:01:31;97716.59;;;-141.02;100.00
8477;BME280;4275;42.854;23.222;2023-06-26T12:04:01;95969.13;;;-141.02;100.00
8477;BME280;4275;42.854;23.222;2023-06-26T12:06:29;95969.13;;;-141.02;100.00
8477;BME280;4275;42.854;23.222;2023-06-26T12:08:56;96218.69;;;-141.02;100.00
8477;BME280;4275;42.854;23.222;2023-06-26T12:11:25;95719.53;;;-141.02;100.00
8477;BME280;4275;42.854;23.222;2023-06-26T12:13:52;95719.53;;;-141.02;100.00
8477;BME280;4275;42.854;23.222;2023-06-26T12:16:21;95969.13;;;-141.02;100.00
8477;BME280;4275;42.854;23.222;2023-06-26T12:18:48;95719.53;;;-141.02;100.00
8477;BME280;4275;42.854;23.222;2023-06-26T12:21:47;94970.94;;;-141.02;100.00
8477;BME280;4275;42.854;23.222;2023-06-26T12:24:19;94471.97;;;-141.02;100.00
8477;BME280;4275;42.854;23.222;2023-06-26T12:26:49;94471.97;;;-141.02;100.00
8477;BME280;4275;42.854;23.222;2023-06-26T12:29:18;94970.94;;;-141.02;100.00
8477;BME280;4275;42.854;23.222;2023-06-26T12:31:49;94222.50;;;-141.02;100.00
8477;BME280;4275;42.854;23.222;2023-06-26T12:34:19;94471.97;;;-141.02;100.00
8477;BME280;4275;42.854;23.222;2023-06-26T12:36:48;95470.00;;;-141.02;100.00
8477;BME280;4275;42.854;23.222;2023-06-26T12:39:16;92975.47;;;-141.02;95.30
8477;BME280;4275;42.854;23.222;2023-06-26T12:41:45;92476.78;;;-141.02;97.60
8477;BME280;4275;42.854;23.222;2023-06-26T12:44:24;91978.16;;;-141.02;97.60
8477;BME280;4275;42.854;23.222;2023-06-26T12:46:56;93224.84;;;-141.02;100.00
8477;BME280;4275;42.854;23.222;2023-06-26T12:49:30;93224.84;;;-141.02;98.73
8477;BME280;4275;42.854;23.222;2023-06-26T12:51:58;92726.13;;;-141.02;96.61
8477;BME280;4275;42.854;23.222;2023-06-26T12:54:25;91728.88;;;-141.02;95.54
8477;BME280;4275;42.854;23.222;2023-06-26T12:56:52;91978.16;;;-141.02;100.00
8477;BME280;4275;42.854;23.222;2023-06-26T12:59:19;91728.88;;;-141.02;98.91
8477;BME280;4275;42.854;23.222;2023-06-26T13:01:46;93723.63;;;-141.02;100.00
8477;BME280;4275;42.854;23.222;2023-06-26T13:04:15;92726.13;;;-141.02;100.00
8477;BME280;4275;42.854;23.222;2023-06-26T13:06:43;92476.78;;;-141.02;100.00
8477;BME280;4275;42.854;23.222;2023-06-26T13:09:10;92726.13;;;-141.02;100.00
8477;BME280;4275;42.854;23.222;2023-06-26T13:11:37;92227.47;;;-141.02;100.00
8477;BME280;4275;42.854;23.222;2023-06-26T13:14:04;91728.88;;;-141.02;100.00
8477;BME280;4275;42.854;23.222;2023-06-26T13:16:31;92227.47;;;-141.02;100.00
8477;BME280;4275;42.854;23.222;2023-06-26T13:18:59;92476.78;;;-141.02;100.00
8477;BME280;4275;42.854;23.222;2023-06-26T13:21:28;92227.47;;;-141.02;100.00
8477;BME280;4275;42.854;23.222;2023-06-26T13:23:55;92975.47;;;-141.02;100.00
8477;BME280;4275;42.854;23.222;2023-06-26T13:26:22;93973.06;;;-141.02;100.00
8477;BME280;4275;42.854;23.222;2023-06-26T13:28:51;94970.94;;;-141.02;96.16
8477;BME280;4275;42.854;23.222;2023-06-26T13:31:18;95220.47;;;-141.02;87.66
8477;BME280;4275;42.854;23.222;2023-06-26T13:33:45;95220.47;;;-141.02;80.73
8477;BME280;4275;42.854;23.222;2023-06-26T13:36:14;96468.31;;;-141.02;84.54
8477;BME280;4275;42.854;23.222;2023-06-26T13:38:42;96218.69;;;-141.02;78.52
8477;BME280;4275;42.854;23.222;2023-06-26T13:41:09;95220.47;;;-141.02;72.34
8477;BME280;4275;42.854;23.222;2023-06-26T13:43:37;95719.53;;;-141.02;74.56
8477;BME280;4275;42.854;23.222;2023-06-26T13:46:04;94721.44;;;-141.02;71.26
8477;BME280;4275;42.854;23.222;2023-06-26T13:48:31;93474.22;;;-141.02;70.50